Time;durP1;ratioP1;P1;durP2;ratioP2;P2;SDS_P1;SDS_P2;PMS_P1;PMS_P2;Temp;Humidity;BMP_temperature;BMP_pressure;BME280_temperature;BME280_humidity;BME280_pressure;Samples;Min_cycle;Max_cycle;Signal;HPM_P1;HPM_P2
2022/12/16 00:02:08;;;;;;;87.82;51.22;;;;;;;;;;4976302;28;20247;-64
2022/12/16 00:04:35;;;;;;;80.43;49.00;;;;;;;;;;4976836;28;20194;-64
2022/12/16 00:07:03;;;;;;;87.35;48.00;;;;;;;;;;4976928;28;20317;-65
2022/12/16 00:09:30;;;;;;;82.47;47.45;;;;;;;;;;4976471;28;20681;-65
2022/12/16 00:11:57;;;;;;;94.10;47.53;;;;;;;;;;4976552;28;20297;-65
2022/12/16 00:14:28;;;;;;;77.45;43.45;;;;;;;;;;4976353;28;20288;-66
2022/12/16 00:16:55;;;;;;;102.70;47.50;;;;;;;;;;4976976;28;20213;-65
2022/12/16 00:19:22;;;;;;;86.65;47.47;;;;;;;;;;4976835;28;20288;-65
2022/12/16 00:21:49;;;;;;;86.18;46.13;;;;;;;;;;4976644;28;20218;-66
2022/12/16 00:24:16;;;;;;;89.88;48.88;;;;;;;;;;4976247;28;20211;-65
2022/12/16 00:26:44;;;;;;;77.10;45.58;;;;;;;;;;4976501;28;20208;-65
2022/12/16 00:29:11;;;;;;;75.97;44.05;;;;;;;;;;4976437;28;20649;-66
2022/12/16 00:31:39;;;;;;;82.00;46.45;;;;;;;;;;4976080;28;20610;-65
2022/12/16 00:34:07;;;;;;;98.95;48.83;;;;;;;;;;4976018;28;20209;-65
2022/12/16 00:36:34;;;;;;;94.90;49.35;;;;;;;;;;4976114;28;20654;-65
2022/12/16 00:39:01;;;;;;;86.07;50.13;;;;;;;;;;4976309;28;20198;-65
2022/12/16 00:41:28;;;;;;;87.97;48.60;;;;;;;;;;4976187;28;20225;-65
2022/12/16 00:43:56;;;;;;;81.40;49.28;;;;;;;;;;4975887;28;20204;-65
2022/12/16 00:46:23;;;;;;;99.38;47.70;;;;;;;;;;4976199;28;20204;-65
2022/12/16 00:48:51;;;;;;;78.65;43.60;;;;;;;;;;4976161;28;20629;-65
2022/12/16 00:51:19;;;;;;;81.55;45.35;;;;;;;;;;4976157;28;20289;-65
2022/12/16 00:53:46;;;;;;;78.55;45.67;;;;;;;;;;4975779;28;20646;-65
2022/12/16 00:56:14;;;;;;;88.30;45.70;;;;;;;;;;4975979;28;20201;-65
2022/12/16 00:58:41;;;;;;;72.65;43.50;;;;;;;;;;4976032;28;20197;-66
2022/12/16 01:01:09;;;;;;;79.35;46.45;;;;;;;;;;4975531;28;20666;-65
2022/12/16 01:03:36;;;;;;;81.35;45.97;;;;;;;;;;4975561;28;20241;-66
2022/12/16 01:06:09;;;;;;;88.28;44.75;;;;;;;;;;4975688;28;20219;-65
2022/12/16 01:08:36;;;;;;;75.10;44.55;;;;;;;;;;4975835;28;20193;-65
2022/12/16 01:11:03;;;;;;;70.43;42.58;;;;;;;;;;4975518;28;20225;-65
2022/12/16 01:16:38;;;;;;;;;;;;;;;;;;;;;
2022/12/16 01:19:06;;;;;;;68.80;42.67;;;;;;;;;;4975516;28;20211;-65
2022/12/16 01:21:35;;;;;;;85.93;43.78;;;;;;;;;;4975147;28;20686;-65
2022/12/16 01:24:02;;;;;;;74.53;41.17;;;;;;;;;;4975575;28;20219;-65
2022/12/16 01:26:30;;;;;;;69.30;40.72;;;;;;;;;;4975441;28;20204;-65
2022/12/16 01:28:58;;;;;;;73.97;43.25;;;;;;;;;;4975132;28;20296;-65
2022/12/16 01:31:25;;;;;;;68.28;40.80;;;;;;;;;;4975093;28;20677;-65
2022/12/16 01:33:53;;;;;;;84.82;41.38;;;;;;;;;;4975390;28;20288;-65
2022/12/16 01:36:20;;;;;;;73.63;40.03;;;;;;;;;;4975205;28;20193;-65
2022/12/16 01:38:49;;;;;;;72.63;40.90;;;;;;;;;;4975282;28;20233;-65
2022/12/16 01:41:17;;;;;;;72.53;40.20;;;;;;;;;;4975078;28;20225;-66
2022/12/16 01:43:45;;;;;;;70.47;39.45;;;;;;;;;;4974880;28;20755;-65
2022/12/16 01:46:16;;;;;;;65.35;38.88;;;;;;;;;;4975228;28;20284;-65
2022/12/16 01:48:46;;;;;;;68.72;39.53;;;;;;;;;;4974844;28;20292;-65
2022/12/16 01:51:16;;;;;;;72.22;38.78;;;;;;;;;;4974537;28;20206;-65
2022/12/16 01:53:45;;;;;;;64.10;39.70;;;;;;;;;;4975220;28;20280;-65
2022/12/16 01:56:15;;;;;;;57.78;39.10;;;;;;;;;;4974816;28;20507;-66
2022/12/16 01:58:43;;;;;;;65.47;38.33;;;;;;;;;;4974970;28;20280;-65
2022/12/16 02:01:10;;;;;;;61.90;37.63;;;;;;;;;;4974673;28;20232;-66
2022/12/16 02:03:38;;;;;;;62.45;37.45;;;;;;;;;;4974810;28;20197;-65
2022/12/16 02:06:07;;;;;;;63.20;36.65;;;;;;;;;;4974859;28;20198;-65
2022/12/16 02:08:34;;;;;;;60.88;37.85;;;;;;;;;;4974478;28;20568;-65
2022/12/16 02:11:07;;;;;;;63.22;38.67;;;;;;;;;;4973881;28;20237;-65
2022/12/16 02:13:42;;;;;;;66.55;38.03;;;;;;;;;;4974592;28;20192;-65
2022/12/16 02:16:16;;;;;;;59.75;36.40;;;;;;;;;;4974621;28;20182;-65
2022/12/16 02:18:47;;;;;;;64.55;37.88;;;;;;;;;;4975270;28;20523;-65
2022/12/16 02:21:32;;;;;;;60.38;37.47;;;;;;;;;;4974061;28;20209;-65
2022/12/16 02:24:14;;;;;;;57.13;35.30;;;;;;;;;;4974134;28;20229;-65
2022/12/16 02:27:00;;;;;;;66.80;36.45;;;;;;;;;;4974466;28;20190;-65
2022/12/16 02:29:38;;;;;;;58.45;36.03;;;;;;;;;;4974749;28;20288;-65
2022/12/16 02:32:12;;;;;;;59.47;35.00;;;;;;;;;;4974052;28;20189;-66
2022/12/16 02:34:45;;;;;;;65.28;36.88;;;;;;;;;;4974424;28;20242;-65
2022/12/16 02:37:15;;;;;;;71.30;37.25;;;;;;;;;;4974378;28;20313;-65
2022/12/16 02:39:46;;;;;;;58.70;35.47;;;;;;;;;;4973997;28;20202;-65
2022/12/16 02:42:15;;;;;;;60.80;36.05;;;;;;;;;;4973789;28;20551;-65
2022/12/16 02:44:45;;;;;;;58.72;36.33;;;;;;;;;;4974203;28;20284;-65
2022/12/16 02:47:14;;;;;;;56.38;34.83;;;;;;;;;;4974218;28;20197;-65
2022/12/16 02:49:48;;;;;;;62.67;37.38;;;;;;;;;;4973855;28;20689;-65
2022/12/16 02:52:16;;;;;;;51.55;33.97;;;;;;;;;;4973787;28;20658;-65
2022/12/16 02:54:44;;;;;;;72.68;38.67;;;;;;;;;;4974212;28;20197;-65
2022/12/16 02:57:17;;;;;;;64.57;37.88;;;;;;;;;;4974174;28;20577;-65
2022/12/16 02:59:46;;;;;;;65.55;33.85;;;;;;;;;;4974172;28;20196;-65
2022/12/16 03:02:20;;;;;;;66.13;36.83;;;;;;;;;;4974001;28;20689;-65
2022/12/16 03:04:49;;;;;;;64.60;35.28;;;;;;;;;;4974680;28;20181;-65
2022/12/16 03:07:18;;;;;;;68.63;37.97;;;;;;;;;;4974315;28;20198;-66
2022/12/16 03:09:46;;;;;;;61.40;35.10;;;;;;;;;;4973565;28;20560;-66
2022/12/16 03:12:15;;;;;;;58.95;35.55;;;;;;;;;;4974513;28;20201;-65
2022/12/16 03:14:43;;;;;;;57.80;35.63;;;;;;;;;;4974024;28;20204;-65
2022/12/16 03:17:11;;;;;;;58.35;36.55;;;;;;;;;;4973941;28;20219;-65
2022/12/16 03:19:41;;;;;;;71.15;36.03;;;;;;;;;;4973571;28;20818;-65
2022/12/16 03:22:10;;;;;;;65.53;37.03;;;;;;;;;;4973922;28;20304;-66
2022/12/16 03:24:38;;;;;;;59.85;35.40;;;;;;;;;;4977439;28;20267;-66
2022/12/16 03:27:09;;;;;;;56.33;35.78;;;;;;;;;;4977363;28;20541;-66
2022/12/16 03:29:40;;;;;;;74.47;37.40;;;;;;;;;;4977996;28;20189;-66
2022/12/16 03:32:10;;;;;;;60.72;35.50;;;;;;;;;;4977423;28;20206;-65
2022/12/16 03:34:39;;;;;;;60.70;35.70;;;;;;;;;;4977405;28;20673;-69
2022/12/16 03:37:09;;;;;;;66.82;37.65;;;;;;;;;;4977629;28;20194;-66
2022/12/16 03:39:45;;;;;;;64.40;36.03;;;;;;;;;;4977923;28;20186;-66
2022/12/16 03:42:14;;;;;;;61.97;38.03;;;;;;;;;;4977746;28;20228;-66
2022/12/16 03:44:42;;;;;;;70.47;40.45;;;;;;;;;;4977495;28;20659;-66
2022/12/16 03:47:10;;;;;;;70.60;37.75;;;;;;;;;;4977726;28;20197;-66
2022/12/16 03:49:37;;;;;;;63.33;37.58;;;;;;;;;;4976996;28;20193;-66
2022/12/16 03:52:04;;;;;;;70.93;37.63;;;;;;;;;;4977337;28;20205;-66
2022/12/16 03:54:33;;;;;;;78.85;37.53;;;;;;;;;;4977855;28;20198;-66
2022/12/16 03:57:00;;;;;;;64.13;35.20;;;;;;;;;;4976959;28;20631;-66
2022/12/16 03:59:27;;;;;;;79.28;38.38;;;;;;;;;;4977231;28;20208;-66
2022/12/16 04:01:55;;;;;;;82.63;39.78;;;;;;;;;;4976916;28;20789;-65
2022/12/16 04:04:22;;;;;;;81.50;38.80;;;;;;;;;;4977701;28;20321;-66
2022/12/16 04:07:19;;;;;;;69.95;39.80;;;;;;;;;;4977191;28;20204;-65
2022/12/16 04:09:38;;;;;;;72.93;39.35;;;;;;;;;;4976786;28;20194;-65
2022/12/16 04:25:51;;;;;;;69.13;36.72;;;;;;;;;;4976568;28;20193;-65
2022/12/16 04:28:19;;;;;;;59.67;38.30;;;;;;;;;;4976193;28;20205;-65
2022/12/16 04:30:46;;;;;;;72.53;40.65;;;;;;;;;;4976456;28;20194;-65
